Apple River, IL (61001)

12:09 PM CST on February 13, 2016 (GMT -0600)
KILSTOCK2 | | Change Station
CLOSE
Current Station
Personal Weather Station
Location: Stockton, IL
Elevation: 959 ft
Nearby Weather Stations
Active Advisory: Winter Weather Advisory

Elev 959 ft 42.40 °N, 89.99 °W | Updated 5 minutes ago

Clear
Clear
7.3 °F
Feels Like 0 °F
N
4.0
Wind Variable Wind from WNW
Gusts 10.0 mph

Today
High -- | Low -- °F
--% Chance of Precip.
Yesterday
High -- | Low -- °F
Precip. -- in
Pressure 30.58 in
Visibility 10.0 miles
Clouds Clear
Windchill 0 °F
Dew Point -4 °F
Humidity 59%
Rainfall 0.00 in
Snow Depth Not available.
7:00 AM 5:29 PM
Waxing Crescent, 33% visible
METAR KPVB 131755Z AUTO 00000KT 10SM CLR M15/M22 A3058 RMK AO1 T11481225 11148 21200
Pressure 30.58 in
Visibility 10.0 miles
Clouds Clear
Windchill 0 °F
Dew Point -4 °F
Humidity 59%
Rainfall 0.00 in
Snow Depth Not available.
7:00 AM 5:29 PM
Waxing Crescent, 33% visible
METAR KPVB 131755Z AUTO 00000KT 10SM CLR M15/M22 A3058 RMK AO1 T11481225 11148 21200

10-Day Weather Forecast

Almanac

Astronomy

Feb. 13, 2016 Rise Set
Actual Time
Civil Twilight
Nautical Twilight
Astronomical Twilight
Moon
Length of Visible Light
Length of Day
Tomorrow will be .
, % of the Moon is Illuminated

Today's Extremes

State Highs State Lows

Community

WunderPhotos

Upload Photos

1,892,631 photos uploaded!

WunderBlog® & News

Nearby

Air Quality

  Air Quality AQ Index Pollutant
Not available.

Snow Depth

Station Depth Elevation

Earthquake Activity

City Distance Mag. Time & Date
Minimum magnitude displayed is 2.5.

Coastal Water Temperatures

Place Temperature

Stations

Nearby Weather Stations

Station Location Temp. Windchill Dew Point Humidity Wind Precip. Elev Updated Type
                   

Watches & Warnings

Winter Weather Advisory
Issued: 11:37 AM CST Feb. 13, 2016 – National Weather Service

... Winter Weather Advisory remains in effect from 9 PM this
evening to 6 PM CST Sunday...

* timing... late evening and continuing through Sunday.

* Snow accumulations... 3 to 5 inches.

* Wind... southeast winds increasing tonight into Sunday morning
with gusts to 25 mph.

* Visibilities... less than a mile in heavier snow at times.

* Temperatures... in the single digits and teens tonight and in
the 20s on Sunday.

* Impacts... snow covered and hazardous roads and low visibility
in heavier snowfall.

Precautionary/preparedness actions...

A Winter Weather Advisory for snow means that periods of snow
will cause travel difficulties. Be prepared for slick... snow
covered roads and limited visibilities... and be careful while
driving.



Nichols